Time;durP1;ratioP1;P1;durP2;ratioP2;P2;SDS_P1;SDS_P2;PMS_P1;PMS_P2;Temp;Humidity;BMP_temperature;BMP_pressure;BME280_temperature;BME280_humidity;BME280_pressure;Samples;Min_cycle;Max_cycle;Signal;HPM_P1;HPM_P2
2021/09/13 00:02:28;;;;;;;3.97;3.57;;;14.50;99.90;;;;;;4997563;28;20928;-91
2021/09/13 00:04:55;;;;;;;4.20;3.53;;;;;;;;;;4995119;28;20968;-90
2021/09/13 00:07:23;;;;;;;4.87;3.90;;;;;;;;;;4997608;28;20465;-91
2021/09/13 00:09:50;;;;;;;13.63;4.10;;;;;;;;;;4994637;28;20532;-92
2021/09/13 00:12:17;;;;;;;3.47;3.17;;;;;;;;;;4997437;28;20523;-92
2021/09/13 00:14:44;;;;;;;6.83;3.20;;;;;;;;;;4996887;28;20449;-92
2021/09/13 00:17:12;;;;;;;3.40;3.13;;;;;;;;;;4995270;28;20797;-93
2021/09/13 00:19:40;;;;;;;4.70;3.30;;;14.50;99.90;;;;;;4996499;28;20445;-90
2021/09/13 00:22:07;;;;;;;5.10;3.87;;;;;;;;;;4997521;28;20457;-93
2021/09/13 00:24:34;;;;;;;6.90;3.50;;;;;;;;;;4996216;28;20466;-91
2021/09/13 00:27:01;;;;;;;3.70;3.40;;;;;;;;;;5000330;28;20461;-92
2021/09/13 00:29:28;;;;;;;3.50;3.20;;;;;;;;;;4999350;28;20449;-91
2021/09/13 00:31:55;;;;;;;5.50;3.17;;;;;;;;;;4995515;28;20441;-89
2021/09/13 00:34:23;;;;;;;4.70;3.20;;;;;;;;;;4995055;28;20441;-92
2021/09/13 00:36:51;;;;;;;4.60;3.27;;;15.00;99.90;;;;;;4997549;28;20480;-91
2021/09/13 00:39:18;;;;;;;4.43;3.40;;;;;;;;;;5004394;28;20461;-89
2021/09/13 00:41:45;;;;;;;4.00;3.60;;;;;;;;;;4998552;28;20883;-91
2021/09/13 00:44:13;;;;;;;3.97;3.13;;;;;;;;;;4996123;28;20449;-91
2021/09/13 00:46:40;;;;;;;4.37;3.97;;;;;;;;;;4995957;28;20461;-91
2021/09/13 00:49:07;;;;;;;7.07;3.10;;;;;;;;;;4996391;28;20457;-91
2021/09/13 00:51:34;;;;;;;5.60;3.73;;;;;;;;;;4995257;28;20468;-91
2021/09/13 00:54:04;;;;;;;3.47;3.13;;;14.10;99.90;;;;;;4993197;28;20936;-91
2021/09/13 00:56:31;;;;;;;4.67;3.17;;;;;;;;;;4996303;28;20503;-91
2021/09/13 00:58:58;;;;;;;4.17;3.03;;;;;;;;;;4996339;28;20457;-92
2021/09/13 01:01:25;;;;;;;3.40;3.10;;;;;;;;;;4996079;28;20453;-93
2021/09/13 01:03:53;;;;;;;3.57;3.27;;;;;;;;;;5005332;28;20457;-91
2021/09/13 01:06:21;;;;;;;4.07;3.00;;;14.40;99.90;;;;;;5016991;28;20457;-92
2021/09/13 01:08:48;;;;;;;3.83;3.53;;;;;;;;;;5007870;28;20820;-93
2021/09/13 01:11:18;;;;;;;3.70;3.30;;;14.40;99.90;;;;;;4996445;28;20477;-91
2021/09/13 01:13:45;;;;;;;5.70;3.17;;;;;;;;;;4995930;28;20456;-90
2021/09/13 01:16:12;;;;;;;4.67;3.60;;;;;;;;;;4992739;28;20489;-91
2021/09/13 01:18:39;;;;;;;3.80;3.50;;;;;;;;;;4990740;28;20810;-90
2021/09/13 01:21:06;;;;;;;3.03;2.83;;;14.30;99.90;;;;;;4994070;28;20448;-91
2021/09/13 01:23:37;;;;;;;3.30;3.10;;;14.30;99.90;;;;;;4996155;28;20484;-91
2021/09/13 01:26:05;;;;;;;7.47;3.70;;;14.20;99.90;;;;;;4995975;28;20461;-90
2021/09/13 01:28:32;;;;;;;3.40;3.10;;;;;;;;;;4995945;28;20454;-92
2021/09/13 01:30:59;;;;;;;3.50;3.20;;;;;;;;;;4994536;28;20476;-91
2021/09/13 01:33:26;;;;;;;3.87;3.57;;;;;;;;;;4995890;28;20445;-90
2021/09/13 01:35:53;;;;;;;5.00;3.63;;;;;;;;;;4995431;28;20489;-90
2021/09/13 01:38:24;;;;;;;3.83;2.90;;;14.00;99.90;;;;;;4995684;28;20927;-91
2021/09/13 01:40:52;;;;;;;4.57;3.10;;;13.90;99.90;;;;;;4995378;28;20464;-91
2021/09/13 01:43:20;;;;;;;9.17;3.73;;;;;;;;;;4995669;28;20814;-90
2021/09/13 01:45:46;;;;;;;4.27;3.50;;;13.70;99.90;;;;;;4994802;28;20449;-91
2021/09/13 01:48:14;;;;;;;3.53;3.17;;;;;;;;;;4995952;28;20931;-92
2021/09/13 01:50:41;;;;;;;4.10;3.30;;;;;;;;;;4995569;28;20449;-90
2021/09/13 01:53:08;;;;;;;5.53;3.20;;;;;;;;;;4995624;28;20525;-89
2021/09/13 01:55:35;;;;;;;3.90;3.50;;;;;;;;;;4993107;28;20458;-90
2021/09/13 01:58:04;;;;;;;4.70;3.00;;;13.70;99.90;;;;;;4993603;28;20454;-93
2021/09/13 02:00:31;;;;;;;3.40;3.10;;;;;;;;;;4995164;28;20456;-91
2021/09/13 02:02:58;;;;;;;3.43;3.07;;;;;;;;;;4994209;28;20461;-90
2021/09/13 02:05:26;;;;;;;5.33;3.17;;;;;;;;;;4995781;28;20453;-91
2021/09/13 02:07:53;;;;;;;4.90;4.03;;;;;;;;;;4995319;28;20984;-94
2021/09/13 02:10:20;;;;;;;3.30;3.00;;;;;;;;;;4999754;28;20464;-90
2021/09/13 02:12:47;;;;;;;4.17;3.10;;;;;;;;;;5010321;28;20449;-91
2021/09/13 02:15:16;;;;;;;5.23;3.50;;;13.30;99.90;;;;;;4995646;28;20464;-94
2021/09/13 02:17:44;;;;;;;5.67;3.63;;;;;;;;;;4995533;28;20865;-93
2021/09/13 02:20:12;;;;;;;7.73;3.47;;;13.40;99.90;;;;;;4995268;28;20964;-92
2021/09/13 02:22:40;;;;;;;3.93;3.57;;;;;;;;;;4954775;28;20455;-94
2021/09/13 02:25:08;;;;;;;3.53;3.00;;;13.30;99.90;;;;;;4954761;28;20453;-94
2021/09/13 02:27:35;;;;;;;4.83;3.57;;;;;;;;;;4954818;28;20444;-91
2021/09/13 02:30:02;;;;;;;4.20;3.53;;;;;;;;;;4953942;29;20470;-94
2021/09/13 02:32:30;;;;;;;4.03;2.87;;;13.30;99.90;;;;;;4949696;29;20494;-92
2021/09/13 02:35:04;;;;;;;4.40;3.43;;;;;;;;;;4954657;28;20470;-93
2021/09/13 02:37:31;;;;;;;5.67;3.10;;;;;;;;;;4954605;28;20557;-91
2021/09/13 02:39:58;;;;;;;5.07;3.30;;;;;;;;;;4960624;28;20457;-93
2021/09/13 02:42:25;;;;;;;9.77;3.37;;;;;;;;;;4994698;28;20434;-94
2021/09/13 02:44:52;;;;;;;4.00;3.63;;;;;;;;;;4997250;28;20433;-92
2021/09/13 02:47:19;;;;;;;4.33;3.50;;;;;;;;;;5000438;28;20452;-94
2021/09/13 02:49:48;;;;;;;4.00;3.70;;;13.50;99.90;;;;;;4995011;28;20951;-92
2021/09/13 02:52:15;;;;;;;3.53;2.77;;;;;;;;;;4995140;28;20962;-92
2021/09/13 02:54:42;;;;;;;3.73;3.33;;;;;;;;;;4995063;28;20805;-92
2021/09/13 02:57:09;;;;;;;5.37;3.70;;;;;;;;;;4993852;28;20496;-92
2021/09/13 02:59:37;;;;;;;4.23;3.30;;;;;;;;;;4992429;28;20469;-93
2021/09/13 03:02:04;;;;;;;4.77;3.50;;;;;;;;;;4994864;28;20454;-95
2021/09/13 03:04:31;;;;;;;3.13;2.87;;;;;;;;;;4994647;28;20434;-93
2021/09/13 03:06:59;;;;;;;3.97;3.30;;;13.20;99.90;;;;;;4994959;28;20440;-93
2021/09/13 03:09:26;;;;;;;3.37;3.07;;;;;;;;;;4989281;28;20441;-92
2021/09/13 03:11:53;;;;;;;4.43;4.03;;;;;;;;;;4994989;28;20448;-91
2021/09/13 03:14:20;;;;;;;3.83;3.50;;;;;;;;;;4993925;28;20433;-93
2021/09/13 03:16:50;;;;;;;3.97;3.57;;;;;;;;;;4991853;28;20555;-93
2021/09/13 03:19:20;;;;;;;3.83;3.30;;;;;;;;;;4995157;28;20493;-90
2021/09/13 03:21:47;;;;;;;4.77;3.83;;;;;;;;;;4994602;28;20449;-93
2021/09/13 03:24:15;;;;;;;4.47;3.70;;;13.10;99.90;;;;;;4994532;28;20449;-93
2021/09/13 03:26:42;;;;;;;4.30;3.60;;;;;;;;;;4994903;28;20448;-93
2021/09/13 03:29:09;;;;;;;4.40;4.00;;;;;;;;;;4990836;28;20453;-93
2021/09/13 03:31:36;;;;;;;3.43;3.17;;;;;;;;;;4996954;28;20450;-95
2021/09/13 03:34:04;;;;;;;3.43;3.13;;;;;;;;;;4993519;28;20548;-90
2021/09/13 03:36:31;;;;;;;6.70;4.00;;;;;;;;;;4991187;28;20481;-90
2021/09/13 03:38:58;;;;;;;4.83;4.33;;;;;;;;;;4994957;28;20441;-94
2021/09/13 03:41:27;;;;;;;4.20;3.30;;;15.90;99.90;;;;;;4990640;28;20454;-91
2021/09/13 03:43:54;;;;;;;7.23;3.90;;;;;;;;;;4994619;28;20448;-93
2021/09/13 03:46:21;;;;;;;4.80;4.00;;;;;;;;;;4990080;28;20434;-93
2021/09/13 03:48:48;;;;;;;3.97;3.57;;;;;;;;;;4994798;28;20465;-93
2021/09/13 03:51:15;;;;;;;4.20;3.80;;;;;;;;;;4991914;28;20794;-93
2021/09/13 03:53:42;;;;;;;4.77;4.33;;;;;;;;;;4995153;28;20431;-93
2021/09/13 03:56:09;;;;;;;5.27;3.83;;;;;;;;;;4998295;28;20952;-92
2021/09/13 03:58:38;;;;;;;4.13;3.73;;;13.10;99.90;;;;;;4995203;28;20831;-92
2021/09/13 04:01:05;;;;;;;6.27;3.60;;;;;;;;;;4997586;28;20436;-92
2021/09/13 04:03:37;;;;;;;6.90;4.17;;;;;;;;;;4998547;28;20437;-91
2021/09/13 04:06:04;;;;;;;4.20;3.80;;;;;;;;;;4994950;28;20936;-93
2021/09/13 04:08:45;;;;;;;5.53;4.03;;;;;;;;;;4992721;28;20929;-92
2021/09/13 04:11:21;;;;;;;4.33;3.93;;;;;;;;;;4998147;28;20480;-92
2021/09/13 04:13:50;;;;;;;3.93;3.63;;;12.90;99.90;;;;;;4997208;28;20461;-90
2021/09/13 04:16:17;;;;;;;6.43;4.10;;;;;;;;;;5013868;28;20798;-90
2021/09/13 04:18:44;;;;;;;4.23;3.50;;;;;;;;;;4998484;28;20430;-95
2021/09/13 04:21:13;;;;;;;4.00;3.70;;;;;;;;;;4997871;28;20450;-93
2021/09/13 04:23:40;;;;;;;4.40;3.70;;;;;;;;;;4994932;28;20493;-90
2021/09/13 04:26:08;;;;;;;4.13;3.73;;;;;;;;;;4996560;28;20477;-91
2021/09/13 04:28:35;;;;;;;5.80;3.60;;;;;;;;;;4996467;28;20769;-93
2021/09/13 04:31:03;;;;;;;4.30;3.90;;;;;;;;;;4995905;28;20446;-89
2021/09/13 04:33:30;;;;;;;4.33;3.93;;;;;;;;;;4996675;28;20441;-91
2021/09/13 04:35:58;;;;;;;6.27;3.80;;;;;;;;;;4996266;28;20456;-90
2021/09/13 04:38:25;;;;;;;4.90;4.03;;;;;;;;;;4992321;28;20489;-89
2021/09/13 04:40:52;;;;;;;5.03;4.03;;;;;;;;;;4996840;28;20457;-89
2021/09/13 04:43:21;;;;;;;4.27;3.87;;;12.50;99.90;;;;;;4996345;28;20514;-91
2021/09/13 04:45:48;;;;;;;5.57;3.80;;;;;;;;;;4992818;28;20479;-90
2021/09/13 04:48:17;;;;;;;4.60;4.20;;;12.50;99.90;;;;;;4996192;28;20445;-92
2021/09/13 04:50:44;;;;;;;6.40;4.40;;;;;;;;;;4996332;28;20453;-89
2021/09/13 04:53:13;;;;;;;5.77;4.63;;;12.70;99.90;;;;;;4996511;28;20444;-93
2021/09/13 04:55:42;;;;;;;6.30;4.40;;;;;;;;;;4993262;28;20960;-91
2021/09/13 04:58:10;;;;;;;5.40;4.27;;;;;;;;;;4996979;28;20528;-94
2021/09/13 05:00:37;;;;;;;4.40;4.00;;;;;;;;;;4994916;28;20488;-90
2021/09/13 05:03:05;;;;;;;4.43;4.03;;;;;;;;;;4993035;28;20489;-87
2021/09/13 05:05:33;;;;;;;4.10;3.80;;;;;;;;;;4997841;28;20456;-88
2021/09/13 05:08:00;;;;;;;4.43;3.80;;;;;;;;;;4994887;28;20464;-92
2021/09/13 05:10:28;;;;;;;4.60;4.20;;;;;;;;;;4990530;28;20484;-93
2021/09/13 05:12:55;;;;;;;5.30;3.97;;;;;;;;;;4996984;28;20450;-90
2021/09/13 05:15:22;;;;;;;6.30;3.60;;;;;;;;;;4996383;28;20440;-91
2021/09/13 05:17:49;;;;;;;4.90;3.27;;;;;;;;;;4990873;28;20496;-89
2021/09/13 05:20:16;;;;;;;5.20;3.70;;;;;;;;;;4993391;28;20459;-90
2021/09/13 05:22:45;;;;;;;5.83;4.07;;;12.60;99.90;;;;;;4996276;28;20502;-89
2021/09/13 05:25:12;;;;;;;3.77;3.37;;;;;;;;;;4996279;28;20813;-90
2021/09/13 05:27:39;;;;;;;6.53;3.90;;;;;;;;;;4996155;28;20457;-90
2021/09/13 05:30:09;;;;;;;5.33;4.00;;;12.50;99.90;;;;;;4995287;28;20453;-90
2021/09/13 05:32:36;;;;;;;6.33;4.00;;;;;;;;;;4987775;28;20461;-92
2021/09/13 05:35:04;;;;;;;4.57;4.17;;;;;;;;;;4997018;28;20453;-90
2021/09/13 05:37:31;;;;;;;4.43;4.00;;;;;;;;;;4996497;28;20505;-91
2021/09/13 05:39:59;;;;;;;7.47;4.70;;;12.70;99.90;;;;;;4996921;28;20445;-89
2021/09/13 05:42:26;;;;;;;4.27;3.93;;;;;;;;;;4992899;28;20480;-91
2021/09/13 05:44:53;;;;;;;4.50;4.10;;;;;;;;;;4992503;28;20932;-91
2021/09/13 05:47:20;;;;;;;4.50;3.93;;;;;;;;;;5006203;28;20454;-90
2021/09/13 05:49:48;;;;;;;5.47;4.20;;;;;;;;;;4997755;28;20441;-93
2021/09/13 05:52:15;;;;;;;5.53;4.10;;;;;;;;;;4995723;28;20457;-90
2021/09/13 05:54:42;;;;;;;4.53;4.13;;;;;;;;;;4996076;28;20452;-92
2021/09/13 05:57:10;;;;;;;3.77;3.47;;;13.10;99.90;;;;;;4990681;28;20491;-89
2021/09/13 05:59:37;;;;;;;5.03;4.63;;;;;;;;;;4990522;28;20456;-91
2021/09/13 06:02:04;;;;;;;7.17;4.00;;;;;;;;;;4995495;28;20458;-90
2021/09/13 06:04:32;;;;;;;5.17;4.67;;;;;;;;;;4995593;28;20465;-91
2021/09/13 06:07:00;;;;;;;5.03;4.37;;;;;;;;;;4992453;28;20457;-89
2021/09/13 06:09:27;;;;;;;5.50;4.07;;;;;;;;;;4994912;28;20445;-91
2021/09/13 06:11:54;;;;;;;8.90;4.73;;;;;;;;;;4993995;28;20573;-90
2021/09/13 06:14:23;;;;;;;5.37;3.27;;;;;;;;;;4994268;28;20820;-88
2021/09/13 06:16:50;;;;;;;4.47;3.63;;;;;;;;;;4995081;28;20916;-91
2021/09/13 06:19:17;;;;;;;4.77;4.17;;;;;;;;;;4995502;28;20445;-91
2021/09/13 06:21:44;;;;;;;5.40;3.83;;;;;;;;;;4995555;28;20460;-90
2021/09/13 06:24:11;;;;;;;6.73;4.57;;;;;;;;;;4995689;28;20457;-91
2021/09/13 06:26:38;;;;;;;11.27;4.30;;;;;;;;;;4995054;28;20445;-93
2021/09/13 06:29:11;;;;;;;8.87;5.13;;;14.70;99.90;;;;;;4998102;28;20472;-95
2021/09/13 06:31:40;;;;;;;4.57;4.17;;;;;;;;;;4994975;28;20536;-92
2021/09/13 06:34:08;;;;;;;7.13;4.17;;;;;;;;;;4994770;28;20461;-90
2021/09/13 06:36:35;;;;;;;6.93;4.63;;;;;;;;;;4993149;28;20454;-91
2021/09/13 06:39:02;;;;;;;6.17;3.83;;;;;;;;;;4994729;28;20496;-92
2021/09/13 06:41:29;;;;;;;5.40;4.90;;;;;;;;;;4997802;28;20449;-93
2021/09/13 06:43:57;;;;;;;6.80;4.50;;;;;;;;;;4996029;28;20790;-92
2021/09/13 06:46:33;;;;;;;6.73;5.60;;;;;;;;;;4994178;28;20481;-92
2021/09/13 06:49:01;;;;;;;5.93;4.23;;;17.80;99.90;;;;;;4989138;28;20547;-90
2021/09/13 06:51:28;;;;;;;6.50;4.63;;;;;;;;;;4993932;28;20454;-88
2021/09/13 06:54:02;;;;;;;6.47;4.20;;;18.60;99.90;;;;;;4996038;28;20445;-91
2021/09/13 06:56:29;;;;;;;10.50;4.50;;;;;;;;;;4995561;28;20455;-90
2021/09/13 06:58:57;;;;;;;6.03;3.77;;;;;;;;;;4993987;28;20516;-87
2021/09/13 07:01:24;;;;;;;4.77;3.50;;;;;;;;;;4993234;28;20801;-91
2021/09/13 07:03:57;;;;;;;5.17;3.80;;;;;;;;;;4994271;28;20457;-88
2021/09/13 07:06:27;;;;;;;7.30;3.40;;;;;;;;;;4994217;28;20457;-87
2021/09/13 07:08:54;;;;;;;3.73;3.43;;;;;;;;;;4994475;28;20449;-88
2021/09/13 07:11:21;;;;;;;4.47;3.53;;;;;;;;;;4994081;28;20489;-91
2021/09/13 07:13:48;;;;;;;5.90;3.07;;;;;;;;;;4993451;28;20935;-87
2021/09/13 07:16:16;;;;;;;4.47;3.17;;;;;;;;;;4992332;28;20445;-88
2021/09/13 07:18:43;;;;;;;4.67;3.53;;;;;;;;;;4997767;28;20573;-87
2021/09/13 07:21:10;;;;;;;3.70;3.20;;;;;;;;;;4990621;28;20499;-86
2021/09/13 07:23:38;;;;;;;3.70;2.80;;;21.20;99.90;;;;;;4994088;28;20449;-85
2021/09/13 07:26:05;;;;;;;3.90;2.60;;;;;;;;;;4994244;28;20456;-86
2021/09/13 07:28:32;;;;;;;3.10;2.80;;;;;;;;;;4993839;28;20797;-88
2021/09/13 07:31:00;;;;;;;3.03;2.63;;;;;;;;;;4997227;28;20449;-88
2021/09/13 07:33:27;;;;;;;6.33;3.43;;;;;;;;;;4997450;28;20445;-90
2021/09/13 07:35:54;;;;;;;5.43;3.43;;;;;;;;;;4997310;28;20464;-89
2021/09/13 07:38:21;;;;;;;4.23;3.83;;;;;;;;;;4997313;28;20492;-87
2021/09/13 07:40:50;;;;;;;7.07;3.20;;;23.10;99.90;;;;;;4997247;28;20824;-88
2021/09/13 07:43:17;;;;;;;3.90;3.50;;;;;;;;;;4997920;28;20442;-90
2021/09/13 07:45:44;;;;;;;8.80;3.50;;;;;;;;;;4996963;28;20457;-87
2021/09/13 07:48:12;;;;;;;8.50;3.50;;;;;;;;;;4995910;28;20460;-90
2021/09/13 07:50:39;;;;;;;3.90;2.97;;;;;;;;;;5000759;28;20454;-91
2021/09/13 07:53:06;;;;;;;3.53;3.03;;;;;;;;;;4997618;28;20475;-90
2021/09/13 07:55:33;;;;;;;4.67;3.10;;;;;;;;;;4995083;28;20485;-89
2021/09/13 07:58:01;;;;;;;3.13;2.83;;;23.90;99.90;;;;;;4995414;28;20560;-92
2021/09/13 08:00:28;;;;;;;3.57;3.27;;;;;;;;;;4995986;28;20500;-93
2021/09/13 08:02:56;;;;;;;4.10;3.33;;;;;;;;;;5005584;28;20467;-90
2021/09/13 08:05:23;;;;;;;4.50;3.03;;;;;;;;;;5000989;28;20817;-93
2021/09/13 08:07:50;;;;;;;3.27;2.97;;;;;;;;;;5002551;28;20453;-95
2021/09/13 08:10:17;;;;;;;5.80;3.27;;;;;;;;;;5001997;28;20504;-88
2021/09/13 08:12:44;;;;;;;4.57;3.03;;;;;;;;;;4999943;28;20445;-91
2021/09/13 08:15:14;;;;;;;6.17;3.43;;;23.80;99.90;;;;;;4999352;28;20480;-89
2021/09/13 08:17:41;;;;;;;8.67;3.20;;;;;;;;;;4999178;28;20493;-91
2021/09/13 08:20:08;;;;;;;6.63;3.50;;;23.90;99.90;;;;;;4998600;28;20533;-93
2021/09/13 08:22:35;;;;;;;3.37;3.00;;;;;;;;;;4999193;28;20453;-92
2021/09/13 08:25:03;;;;;;;3.67;2.87;;;;;;;;;;4998919;28;20453;-93
2021/09/13 08:27:30;;;;;;;4.77;2.90;;;;;;;;;;5001519;28;20452;-90
2021/09/13 08:29:57;;;;;;;6.03;2.97;;;;;;;;;;4997761;28;20484;-92
2021/09/13 08:32:25;;;;;;;5.13;2.87;;;25.00;99.90;;;;;;4996343;28;20445;-91
2021/09/13 08:34:53;;;;;;;5.30;2.90;;;;;;;;;;4996916;28;20450;-90
2021/09/13 08:37:21;;;;;;;3.40;3.10;;;;;;;;;;4997404;28;20536;-92
2021/09/13 08:39:49;;;;;;;3.20;3.00;;;;;;;;;;4996471;28;20967;-93
2021/09/13 08:42:16;;;;;;;3.60;3.30;;;24.50;99.90;;;;;;4994043;28;20511;-94
2021/09/13 08:44:46;;;;;;;5.37;3.00;;;;;;;;;;5004407;28;20441;-89
2021/09/13 08:47:18;;;;;;;3.17;2.83;;;;;;;;;;4998803;28;20485;-91
2021/09/13 08:49:48;;;;;;;3.63;3.27;;;25.80;98.20;;;;;;4999603;28;20462;-87
2021/09/13 08:52:15;;;;;;;8.30;4.10;;;;;;;;;;5003453;28;20441;-88
2021/09/13 08:54:42;;;;;;;3.73;3.43;;;;;;;;;;4997524;28;20457;-90
2021/09/13 08:57:11;;;;;;;5.10;3.43;;;24.90;99.90;;;;;;4995880;28;20469;-89
2021/09/13 08:59:39;;;;;;;7.90;4.03;;;25.20;99.90;;;;;;4995054;28;20489;-87
2021/09/13 09:02:07;;;;;;;4.80;3.37;;;;;;;;;;4992305;28;20445;-90
2021/09/13 09:04:34;;;;;;;4.47;4.07;;;;;;;;;;4995758;28;20457;-90
2021/09/13 09:07:12;;;;;;;11.40;4.37;;;26.30;98.60;;;;;;5005459;23;20444;-89
2021/09/13 09:09:42;;;;;;;3.43;3.13;;;26.90;96.90;;;;;;5015701;23;20805;-95
2021/09/13 09:12:15;;;;;;;4.20;3.80;;;26.70;96.00;;;;;;5017543;23;20481;-89
2021/09/13 09:14:43;;;;;;;7.67;3.40;;;26.90;96.70;;;;;;5011814;28;20444;-90
2021/09/13 09:17:14;;;;;;;4.93;3.47;;;26.90;96.60;;;;;;5012753;28;20453;-89
2021/09/13 09:19:43;;;;;;;4.33;3.93;;;;;;;;;;5017309;23;21058;-91
2021/09/13 09:22:31;;;;;;;5.27;3.77;;;26.60;97.20;;;;;;5017713;23;20501;-88
2021/09/13 09:24:58;;;;;;;6.37;4.10;;;;;;;;;;5019482;23;20497;-88
2021/09/13 09:27:27;;;;;;;5.43;3.67;;;27.00;98.20;;;;;;5013933;28;20434;-88
2021/09/13 09:29:54;;;;;;;5.20;4.70;;;26.20;97.30;;;;;;5010240;23;20557;-87
2021/09/13 09:32:23;;;;;;;5.90;4.60;;;26.20;98.00;;;;;;5010977;28;20470;-88
2021/09/13 09:34:51;;;;;;;4.93;4.10;;;;;;;;;;5009914;28;20457;-91
2021/09/13 09:37:19;;;;;;;4.20;3.90;;;;;;;;;;5014609;23;20537;-88
2021/09/13 09:39:49;;;;;;;10.70;4.50;;;26.20;98.50;;;;;;5010872;28;20457;-88
2021/09/13 09:42:30;;;;;;;5.20;4.70;;;26.80;97.70;;;;;;5017438;23;20493;-90
2021/09/13 09:44:58;;;;;;;5.07;4.63;;;27.20;96.10;;;;;;5004402;28;20469;-91
2021/09/13 09:47:25;;;;;;;7.67;4.70;;;;;;;;;;5003736;28;20453;-90
2021/09/13 09:49:54;;;;;;;4.83;4.30;;;27.70;95.60;;;;;;5007646;28;20489;-90
2021/09/13 09:52:35;;;;;;;6.03;4.07;;;27.30;97.10;;;;;;5009060;28;20559;-92
2021/09/13 09:55:28;;;;;;;4.87;4.47;;;27.40;96.90;;;;;;5019230;23;20489;-89
2021/09/13 09:58:06;;;;;;;4.60;4.20;;;26.90;97.30;;;;;;4995676;28;20454;-90
2021/09/13 10:00:37;;;;;;;5.70;4.73;;;27.50;98.20;;;;;;5001107;23;20484;-89
2021/09/13 10:03:04;;;;;;;4.67;4.27;;;;;;;;;;5010017;28;20456;-90
2021/09/13 10:05:34;;;;;;;5.07;4.67;;;29.00;97.60;;;;;;5022445;23;20906;-90
2021/09/13 10:08:01;;;;;;;5.30;4.80;;;;;;;;;;5004599;28;20444;-88
2021/09/13 10:10:32;;;;;;;6.80;5.03;;;27.20;97.40;;;;;;5009634;28;20513;-91
2021/09/13 10:13:00;;;;;;;6.57;4.70;;;27.60;97.30;;;;;;5017341;23;20500;-89
2021/09/13 10:15:27;;;;;;;5.60;4.80;;;;;;;;;;4997704;28;20944;-91
2021/09/13 10:17:54;;;;;;;5.30;4.80;;;;;;;;;;4997086;28;20468;-87
2021/09/13 10:20:24;;;;;;;5.47;4.97;;;;;;;;;;4996859;28;20467;-92
2021/09/13 10:22:54;;;;;;;4.60;4.20;;;27.00;98.00;;;;;;4998208;28;20515;-88
2021/09/13 10:25:22;;;;;;;4.90;4.50;;;;;;;;;;4996110;28;20450;-91
2021/09/13 10:27:51;;;;;;;6.13;5.53;;;28.20;96.60;;;;;;4997401;28;20453;-89
2021/09/13 10:30:21;;;;;;;8.47;4.60;;;28.60;97.00;;;;;;4995811;28;20493;-92
2021/09/13 10:32:49;;;;;;;5.37;4.97;;;27.80;97.30;;;;;;5001230;28;20465;-90
2021/09/13 10:35:18;;;;;;;8.03;4.70;;;27.60;98.30;;;;;;4998901;28;20450;-89
2021/09/13 10:37:48;;;;;;;8.50;5.13;;;27.60;97.60;;;;;;5015953;23;20487;-88
2021/09/13 10:40:29;;;;;;;4.40;3.37;;;28.10;97.50;;;;;;5001581;28;20445;-88
2021/09/13 10:43:18;;;;;;;6.00;5.50;;;28.50;96.20;;;;;;5013562;23;20500;-89
2021/09/13 10:45:45;;;;;;;6.17;5.27;;;;;;;;;;5003118;28;20454;-88
2021/09/13 10:48:17;;;;;;;4.80;4.37;;;29.10;94.40;;;;;;5004721;28;20440;-89
2021/09/13 10:50:46;;;;;;;6.77;5.60;;;28.70;93.50;;;;;;5008305;28;20437;-88
2021/09/13 10:53:33;;;;;;;6.00;4.97;;;27.70;93.50;;;;;;5006457;28;20453;-88
2021/09/13 10:56:03;;;;;;;4.10;3.67;;;26.30;97.50;;;;;;5000239;28;20453;-89
2021/09/13 10:58:53;;;;;;;5.83;4.40;;;27.10;95.80;;;;;;5005752;28;20456;-88
2021/09/13 11:01:26;;;;;;;4.63;4.33;;;27.20;96.30;;;;;;5009196;28;20417;-88
2021/09/13 11:03:58;;;;;;;5.70;5.07;;;;;;;;;;5021044;23;20483;-88
2021/09/13 11:06:36;;;;;;;5.50;5.00;;;26.90;96.40;;;;;;5005997;28;20820;-90
2021/09/13 11:09:18;;;;;;;5.37;4.87;;;26.10;98.70;;;;;;5002085;28;20976;-88
2021/09/13 11:14:34;;;;;;;6.00;4.40;;;25.10;98.80;;;;;;4993098;23;20500;-92
2021/09/13 11:17:03;;;;;;;5.00;4.60;;;24.70;99.20;;;;;;4979575;28;20600;-90
2021/09/13 11:19:31;;;;;;;6.03;5.10;;;24.70;99.90;;;;;;4982535;28;20873;-88
2021/09/13 11:21:59;;;;;;;8.30;4.70;;;24.80;99.90;;;;;;4975092;28;20453;-90
2021/09/13 11:24:29;;;;;;;4.70;4.30;;;25.30;99.60;;;;;;4977290;28;20454;-91
2021/09/13 11:26:59;;;;;;;4.33;4.03;;;24.90;99.90;;;;;;4980368;28;20495;-90
2021/09/13 11:29:32;;;;;;;4.00;3.70;;;25.20;99.90;;;;;;4978639;28;20492;-92
2021/09/13 11:32:02;;;;;;;3.70;3.40;;;26.10;98.30;;;;;;4978250;28;20486;-91
2021/09/13 11:34:32;;;;;;;5.43;4.20;;;26.70;96.90;;;;;;4984179;28;20464;-92
2021/09/13 11:37:07;;;;;;;4.50;4.10;;;27.20;97.50;;;;;;4979482;28;20454;-92
2021/09/13 11:39:38;;;;;;;4.07;3.77;;;26.80;95.30;;;;;;4985293;28;20441;-92
2021/09/13 11:42:08;;;;;;;4.30;3.83;;;26.30;97.10;;;;;;4982379;28;20545;-92
2021/09/13 11:44:39;;;;;;;4.30;3.90;;;;;;;;;;4977074;28;20524;-90
2021/09/13 11:47:09;;;;;;;5.07;3.70;;;26.40;98.70;;;;;;4978987;28;20458;-92
2021/09/13 11:49:38;;;;;;;6.13;4.03;;;25.70;99.50;;;;;;4975220;28;20533;-93
2021/09/13 11:52:27;;;;;;;4.00;3.70;;;26.50;99.90;;;;;;4978169;28;20505;-93
2021/09/13 11:54:59;;;;;;;4.10;3.70;;;27.20;98.20;;;;;;4984956;28;20489;-91
2021/09/13 11:57:41;;;;;;;4.37;4.07;;;27.30;97.30;;;;;;4983915;28;20454;-91
2021/09/13 12:00:13;;;;;;;8.70;4.10;;;25.80;99.60;;;;;;4985782;28;20449;-90
2021/09/13 12:02:45;;;;;;;3.83;3.53;;;25.50;99.90;;;;;;4979396;28;20530;-92
2021/09/13 12:05:15;;;;;;;4.83;3.50;;;26.50;99.90;;;;;;4984365;28;20462;-89
2021/09/13 12:07:44;;;;;;;4.13;3.60;;;26.90;99.90;;;;;;4982394;28;20478;-89
2021/09/13 12:10:12;;;;;;;4.27;3.87;;;27.30;97.50;;;;;;4984102;28;20490;-90
2021/09/13 12:12:44;;;;;;;3.43;3.17;;;27.40;99.90;;;;;;4982768;28;20968;-91
2021/09/13 12:15:14;;;;;;;6.83;3.93;;;28.00;95.90;;;;;;4985140;28;20450;-91
2021/09/13 12:20:50;;;;;;;5.80;3.77;;;28.30;94.10;;;;;;4990091;28;20902;-91
2021/09/13 12:23:22;;;;;;;4.13;3.80;;;28.30;93.20;;;;;;5106022;23;20496;-93
2021/09/13 12:25:51;;;;;;;5.40;4.20;;;27.40;93.80;;;;;;5009636;28;20429;-90
2021/09/13 12:28:21;;;;;;;4.60;4.20;;;27.40;93.80;;;;;;5003658;28;20464;-93
2021/09/13 12:30:54;;;;;;;5.13;4.13;;;27.50;93.60;;;;;;5011270;28;21045;-91
2021/09/13 12:33:35;;;;;;;3.57;3.27;;;26.40;96.40;;;;;;5006718;28;20434;-89
2021/09/13 12:36:14;;;;;;;4.50;3.60;;;26.50;96.10;;;;;;5021656;23;20493;-92
2021/09/13 12:38:43;;;;;;;4.60;4.20;;;27.30;96.20;;;;;;5019532;23;20488;-90
2021/09/13 12:41:13;;;;;;;5.17;3.90;;;;;;;;;;5014617;28;20463;-93
2021/09/13 12:43:44;;;;;;;4.03;3.73;;;26.30;95.60;;;;;;5012486;28;20462;-91
2021/09/13 12:48:41;;;;;;;4.03;3.63;;;25.80;98.80;;;;;;5103893;23;20577;-90
2021/09/13 12:51:13;;;;;;;4.70;3.87;;;26.60;96.30;;;;;;5008322;28;20209;-92
2021/09/13 12:53:40;;;;;;;3.80;3.50;;;;;;;;;;5006871;28;20446;-92
2021/09/13 12:56:15;;;;;;;3.60;3.30;;;26.90;95.20;;;;;;5001170;28;20453;-91
2021/09/13 12:58:44;;;;;;;4.10;3.50;;;;;;;;;;5010549;23;20921;-92
2021/09/13 13:01:31;;;;;;;4.50;3.83;;;26.70;96.20;;;;;;4998367;28;20492;-91
2021/09/13 13:04:18;;;;;;;5.17;4.27;;;26.40;95.20;;;;;;5004424;28;20540;-91
2021/09/13 13:07:08;;;;;;;8.33;4.03;;;26.00;96.90;;;;;;5012155;28;20461;-91
2021/09/13 13:09:35;;;;;;;3.90;3.60;;;;;;;;;;5015380;23;20875;-93
2021/09/13 13:12:02;;;;;;;4.70;4.20;;;;;;;;;;5001237;28;20469;-93
2021/09/13 13:14:30;;;;;;;4.93;3.30;;;26.60;97.00;;;;;;5036836;23;20444;-91
2021/09/13 13:16:58;;;;;;;6.43;3.60;;;;;;;;;;4984816;28;20542;-91
2021/09/13 13:19:27;;;;;;;3.90;3.60;;;25.40;97.70;;;;;;5011130;23;20495;-91
2021/09/13 13:21:57;;;;;;;3.43;3.13;;;;;;;;;;5009157;28;20449;-92
2021/09/13 13:24:24;;;;;;;3.80;3.47;;;;;;;;;;5004132;28;20850;-91
2021/09/13 13:26:58;;;;;;;5.20;3.60;;;25.60;96.90;;;;;;5002436;28;20450;-91
2021/09/13 13:29:25;;;;;;;7.23;3.50;;;;;;;;;;5009467;28;20499;-91
2021/09/13 13:31:57;;;;;;;4.50;3.20;;;;;;;;;;5010797;28;20512;-92
2021/09/13 13:34:27;;;;;;;12.10;3.73;;;;;;;;;;5003644;28;20461;-92
2021/09/13 13:36:55;;;;;;;3.80;3.50;;;25.70;96.10;;;;;;5006979;28;20485;-91
2021/09/13 13:39:22;;;;;;;4.60;3.67;;;;;;;;;;5009415;28;20461;-91
2021/09/13 13:41:49;;;;;;;4.10;3.40;;;;;;;;;;5030948;23;20511;-92
2021/09/13 13:44:17;;;;;;;3.50;3.20;;;;;;;;;;4968403;28;20455;-92
2021/09/13 13:46:44;;;;;;;3.47;3.27;;;;;;;;;;4963760;29;20451;-91
2021/09/13 13:49:11;;;;;;;3.27;3.00;;;;;;;;;;4967374;28;20455;-90
2021/09/13 13:51:38;;;;;;;2.87;2.67;;;;;;;;;;4969205;29;20435;-90
2021/09/13 13:54:08;;;;;;;4.07;3.30;;;24.90;99.90;;;;;;4984353;23;20497;-90
2021/09/13 13:56:35;;;;;;;3.40;3.20;;;;;;;;;;5003714;28;20442;-91
2021/09/13 13:59:02;;;;;;;3.60;3.00;;;;;;;;;;5004168;28;20449;-91
2021/09/13 14:01:31;;;;;;;3.87;3.47;;;;;;;;;;5000990;28;20806;-91
2021/09/13 14:03:58;;;;;;;3.90;3.50;;;;;;;;;;5008844;28;20449;-91
2021/09/13 14:06:25;;;;;;;3.53;2.77;;;;;;;;;;5012853;28;20472;-90
2021/09/13 14:08:52;;;;;;;7.17;4.00;;;;;;;;;;5007017;28;20479;-91
2021/09/13 14:11:21;;;;;;;4.40;3.90;;;;;;;;;;5003572;28;20497;-90
2021/09/13 14:13:48;;;;;;;4.93;3.73;;;;;;;;;;5002347;28;20457;-91
2021/09/13 14:16:16;;;;;;;4.20;3.80;;;;;;;;;;4999587;28;20466;-89